Dover, DE (19901)

4:56 PM EDT on June 02, 2015 (GMT -0400)
St. Jones Commons (Sunde) | | Change Station
CLOSE
Current Station
Personal Weather Station
Location: Dover, DE
Elevation: 39 ft
Nearby Weather Stations

Elev 39 ft 39.13 °N, 75.51 °W | Updated 5 seconds ago

Light Rain
Light Rain Mist
56.9 °F
Feels Like 56.9 °F
N
10.0
Wind Variable Wind from ENE

Today
High -- | Low -- °F
--% Chance of Precip.
Yesterday
High -- | Low -- °F
Precip. -- in
5:37 AM 8:22 PM
Full, 100% visible
Pressure 30.07 in
Visibility 6.0 miles
Clouds Overcast 800 ft
Dew Point 56 °F
Humidity 95%
Rainfall 0.58 in
Snow Depth Not available.
UV 2 out of 12
Pollen .90 out of 12
Air Quality Not available.
Flu Activity No Activity
SPECI KDOV 022048Z AUTO 36011KT 6SM -RA BR OVC008 14/14 A3007 RMK AO2 RAB1958E19DZB19E21RAB48 VISNO RWY19 CHINO RWY19 $

More Conditions Fewer Conditions

Pressure 30.07 in
Visibility 6.0 miles
Clouds Overcast 800 ft
Dew Point 56 °F
Humidity 95%
Rainfall 0.58 in
Snow Depth Not available.
UV 2 out of 12
Pollen .90 out of 12
Air Quality Not available.
Flu Activity No Activity
SPECI KDOV 022048Z AUTO 36011KT 6SM -RA BR OVC008 14/14 A3007 RMK AO2 RAB1958E19DZB19E21RAB48 VISNO RWY19 CHINO RWY19 $

More Conditions Fewer Conditions

Nowcast | as of 4:10 PM EDT on June 2, 2015

Through the rest of the afternoon, some spotty light rain or drizzle will affect the area. Rainfall amounts between 4 PM and 6 PM should average less than five hundredths of an inch.

×

10-Day Weather Forecast

×

Almanac

Astronomy

Jun. 02, 2015 Rise Set
Actual Time
Civil Twilight
Nautical Twilight
Astronomical Twilight
Moon
Length of Visible Light
Length of Day
Tomorrow will be .
, % of the Moon is Illuminated

Today's Extremes

State Highs State Lows

Community

WunderPhotos

Upload Photos

1,826,022 photos uploaded!

WunderBlogs® & News

Nearby

Air Quality

  Air Quality AQ Index Pollutant
Not available.

Snow Depth

Station Depth Elevation

Earthquake Activity

City Distance Mag. Time & Date
Minimum magnitude displayed is 2.5.

Coastal Water Temperatures

Place Temperature

Stations

Nearby Weather Stations

Station Location Temp. Windchill Dew Point Humidity Wind Precip. Elev Updated Type